Time;durP1;ratioP1;P1;durP2;ratioP2;P2;SDS_P1;SDS_P2;PMS_P1;PMS_P2;Temp;Humidity;BMP_temperature;BMP_pressure;BME280_temperature;BME280_humidity;BME280_pressure;Samples;Min_cycle;Max_cycle;Signal;HPM_P1;HPM_P2
2021/12/26 00:01:45;;;;;;;36.72;15.32;;;4.80;97.10;;;;;;6250864;28;20119;-78
2021/12/26 00:04:47;;;;;;;41.83;15.75;;;4.80;97.40;;;;;;6251600;28;20051;-78
2021/12/26 00:07:50;;;;;;;29.98;11.93;;;4.90;97.30;;;;;;6252058;28;20053;-78
2021/12/26 00:10:52;;;;;;;36.00;13.23;;;5.00;97.40;;;;;;6251634;28;20262;-78
2021/12/26 00:13:55;;;;;;;31.90;13.60;;;5.00;97.00;;;;;;6251052;28;20463;-79
2021/12/26 00:16:58;;;;;;;52.08;16.55;;;5.00;97.50;;;;;;6252672;28;20130;-79
2021/12/26 00:20:00;;;;;;;44.97;16.05;;;5.00;97.10;;;;;;6252672;28;20052;-79
2021/12/26 00:23:04;;;;;;;34.20;14.23;;;5.10;97.30;;;;;;6253852;28;20046;-80
2021/12/26 00:26:06;;;;;;;44.63;14.73;;;5.30;97.30;;;;;;6251191;28;20060;-79
2021/12/26 00:29:08;;;;;;;33.55;13.98;;;5.30;97.00;;;;;;6252033;28;20075;-79
2021/12/26 00:32:09;;;;;;;40.08;15.32;;;5.40;97.00;;;;;;6252772;28;20049;-80
2021/12/26 00:35:13;;;;;;;45.47;18.40;;;5.40;96.80;;;;;;6250308;28;20678;-78
2021/12/26 00:38:17;;;;;;;47.78;18.02;;;5.40;96.70;;;;;;6250880;28;20586;-78
2021/12/26 00:41:18;;;;;;;43.83;15.32;;;5.50;96.80;;;;;;6252305;28;20184;-78
2021/12/26 00:44:20;;;;;;;39.80;16.30;;;5.50;96.80;;;;;;6250993;28;20176;-78
2021/12/26 00:47:22;;;;;;;33.33;14.05;;;5.60;96.80;;;;;;6251011;28;20392;-78
2021/12/26 00:50:29;;;;;;;38.65;15.75;;;5.60;96.50;;;;;;6252023;28;20457;-78
2021/12/26 00:53:33;;;;;;;36.10;13.73;;;5.60;96.40;;;;;;6250928;28;20068;-78
2021/12/26 00:56:35;;;;;;;41.47;15.80;;;5.50;96.20;;;;;;6250640;28;20056;-78
2021/12/26 00:59:36;;;;;;;43.15;15.55;;;5.40;96.30;;;;;;6251054;28;20045;-78
2021/12/26 01:02:39;;;;;;;30.98;13.25;;;5.40;96.20;;;;;;6251602;28;20741;-79
2021/12/26 01:05:43;;;;;;;43.17;14.18;;;5.30;96.40;;;;;;6250183;28;20120;-78
2021/12/26 01:08:49;;;;;;;49.97;16.33;;;5.30;96.50;;;;;;6248490;28;20205;-77
2021/12/26 01:11:55;;;;;;;40.58;14.27;;;5.20;96.20;;;;;;6246242;28;20046;-78
2021/12/26 01:15:03;;;;;;;42.85;14.90;;;5.10;96.60;;;;;;6247398;28;20049;-78
2021/12/26 01:18:04;;;;;;;;;;;5.10;96.50;;;;;;6248226;28;20050;-77
2021/12/26 01:21:17;;;;;;;47.92;16.02;;;5.10;96.70;;;;;;6248832;28;19921;-78
2021/12/26 01:24:20;;;;;;;47.88;15.48;;;5.20;96.60;;;;;;6249113;28;20065;-78
2021/12/26 01:27:21;;;;;;;36.58;13.77;;;5.30;96.80;;;;;;6248190;28;20064;-78
2021/12/26 01:30:23;;;;;;;49.78;15.27;;;5.30;96.50;;;;;;6248877;28;20525;-78
2021/12/26 01:33:26;;;;;;;52.03;17.23;;;5.20;96.60;;;;;;6246688;28;20566;-78
2021/12/26 01:36:29;;;;;;;42.30;16.70;;;5.30;96.60;;;;;;6223475;28;20053;-78
2021/12/26 01:39:32;;;;;;;37.97;15.05;;;5.40;96.70;;;;;;6223366;28;20056;-78
2021/12/26 01:42:34;;;;;;;43.60;15.27;;;5.40;96.60;;;;;;6223844;28;20054;-78
2021/12/26 01:45:36;;;;;;;41.53;15.68;;;5.40;96.40;;;;;;6222361;28;20161;-78
2021/12/26 01:48:38;;;;;;;41.65;14.65;;;5.40;96.60;;;;;;6222209;28;20050;-80
2021/12/26 01:51:41;;;;;;;35.78;14.13;;;5.40;96.30;;;;;;6223078;28;20128;-78
2021/12/26 01:54:47;;;;;;;40.72;14.70;;;5.40;96.20;;;;;;6222533;28;20096;-79
2021/12/26 01:57:49;;;;;;;41.95;15.25;;;5.40;96.30;;;;;;6226259;28;20042;-78
2021/12/26 02:00:53;;;;;;;39.85;16.33;;;5.40;96.50;;;;;;6222269;28;20087;-77
2021/12/26 02:03:56;;;;;;;41.25;14.50;;;5.30;95.90;;;;;;6224334;28;20050;-79
2021/12/26 02:06:59;;;;;;;41.05;14.50;;;5.20;96.00;;;;;;6226279;28;20054;-79
2021/12/26 02:10:02;;;;;;;44.55;15.68;;;5.20;96.20;;;;;;6229709;28;20426;-78
2021/12/26 02:13:05;;;;;;;42.17;16.70;;;5.20;96.30;;;;;;6229930;28;20522;-78
2021/12/26 02:16:07;;;;;;;47.33;16.33;;;5.20;96.20;;;;;;6228938;28;20152;-79
2021/12/26 02:19:09;;;;;;;27.40;11.60;;;5.20;96.20;;;;;;6230567;28;20045;-78
2021/12/26 02:22:17;;;;;;;42.65;17.20;;;5.20;96.40;;;;;;6229553;28;20050;-79
2021/12/26 02:25:31;;;;;;;42.28;16.27;;;5.20;96.40;;;;;;6231318;28;20053;-80
2021/12/26 02:28:32;;;;;;;50.35;16.90;;;5.20;96.30;;;;;;6233629;28;20045;-82
2021/12/26 02:31:33;;;;;;;49.13;18.55;;;5.20;96.10;;;;;;6231961;28;20053;-79
2021/12/26 02:34:36;;;;;;;44.90;16.35;;;5.10;96.20;;;;;;6233822;28;20050;-81
2021/12/26 02:37:39;;;;;;;40.97;15.55;;;5.20;96.40;;;;;;6234313;28;20073;-81
2021/12/26 02:40:42;;;;;;;40.40;15.38;;;5.20;96.30;;;;;;6231817;28;20443;-79
2021/12/26 02:43:44;;;;;;;55.38;16.70;;;5.30;96.30;;;;;;6233701;28;20045;-78
2021/12/26 02:46:46;;;;;;;42.30;15.77;;;5.30;96.20;;;;;;6232981;28;20056;-79
2021/12/26 02:49:48;;;;;;;53.17;16.55;;;5.30;96.10;;;;;;6232298;28;20148;-80
2021/12/26 02:52:52;;;;;;;43.17;17.10;;;5.30;96.20;;;;;;6233104;28;20045;-79
2021/12/26 02:55:56;;;;;;;44.22;16.20;;;5.30;96.30;;;;;;6233902;28;20056;-80
2021/12/26 02:58:58;;;;;;;39.58;15.85;;;5.40;96.20;;;;;;6235540;28;20061;-79
2021/12/26 03:02:00;;;;;;;34.95;13.73;;;5.40;96.20;;;;;;6236888;28;20096;-79
2021/12/26 03:05:05;;;;;;;40.20;15.25;;;5.40;96.10;;;;;;6233031;28;20046;-79
2021/12/26 03:08:11;;;;;;;34.15;14.23;;;5.40;95.90;;;;;;6232284;28;20046;-79
2021/12/26 03:11:13;;;;;;;52.40;18.20;;;5.40;96.00;;;;;;6230642;28;20189;-78
2021/12/26 03:14:15;;;;;;;41.60;15.95;;;5.30;95.90;;;;;;6235412;28;20046;-78
2021/12/26 03:17:17;;;;;;;50.30;18.23;;;5.30;96.10;;;;;;6231195;28;20050;-79
2021/12/26 03:20:21;;;;;;;46.63;16.17;;;5.30;96.10;;;;;;6227796;28;20105;-79
2021/12/26 03:23:27;;;;;;;50.08;16.17;;;5.40;96.10;;;;;;6229989;28;20050;-79
2021/12/26 03:26:29;;;;;;;35.25;13.40;;;5.50;96.10;;;;;;6233317;28;20041;-78
2021/12/26 03:29:31;;;;;;;48.33;16.45;;;5.50;95.90;;;;;;6233193;28;20074;-79
2021/12/26 03:32:33;;;;;;;47.78;18.08;;;5.50;96.00;;;;;;6227331;28;20125;-79
2021/12/26 03:35:37;;;;;;;48.20;17.77;;;5.60;95.90;;;;;;6226904;28;20116;-79
2021/12/26 03:38:40;;;;;;;43.20;14.18;;;5.60;95.90;;;;;;6227972;28;20108;-79
2021/12/26 03:41:44;;;;;;;38.80;15.52;;;5.60;95.80;;;;;;6227073;28;20057;-79
2021/12/26 03:44:46;;;;;;;40.65;15.43;;;5.70;96.00;;;;;;6228736;28;20042;-80
2021/12/26 03:47:50;;;;;;;43.92;16.30;;;5.70;95.80;;;;;;6230719;28;20057;-80
2021/12/26 03:50:53;;;;;;;48.45;16.95;;;5.70;95.80;;;;;;6230220;28;20077;-79
2021/12/26 03:53:56;;;;;;;37.70;14.15;;;5.70;95.70;;;;;;6228667;28;20068;-80
2021/12/26 03:56:58;;;;;;;43.17;15.93;;;5.70;95.50;;;;;;6228174;28;20046;-80
2021/12/26 04:00:00;;;;;;;35.35;14.93;;;5.60;95.50;;;;;;6228592;28;20524;-80
2021/12/26 04:03:02;;;;;;;41.63;16.73;;;5.60;95.70;;;;;;6229463;28;20056;-79
2021/12/26 04:06:04;;;;;;;39.45;15.70;;;5.70;95.70;;;;;;6200765;28;20176;-79
2021/12/26 04:09:08;;;;;;;41.45;15.52;;;5.70;95.70;;;;;;6229231;28;20049;-80
2021/12/26 04:12:10;;;;;;;35.83;14.85;;;5.70;95.70;;;;;;6229112;28;20116;-79
2021/12/26 04:15:13;;;;;;;42.40;15.00;;;5.70;95.90;;;;;;6229246;28;20045;-79
2021/12/26 04:18:15;;;;;;;32.20;15.23;;;5.70;95.70;;;;;;6228179;28;20046;-79
2021/12/26 04:21:17;;;;;;;36.42;13.13;;;5.70;95.50;;;;;;6228591;28;20050;-79
2021/12/26 04:24:21;;;;;;;37.72;15.95;;;5.60;95.50;;;;;;6228904;28;20045;-80
2021/12/26 04:27:24;;;;;;;33.80;14.32;;;5.60;95.70;;;;;;6225121;28;20443;-78
2021/12/26 04:30:27;;;;;;;29.73;12.98;;;5.70;95.80;;;;;;6224843;28;20056;-78
2021/12/26 04:33:29;;;;;;;31.33;14.23;;;5.80;95.60;;;;;;6226656;28;20052;-80
2021/12/26 04:36:31;;;;;;;34.75;14.10;;;5.80;95.70;;;;;;6226952;28;20490;-79
2021/12/26 04:39:34;;;;;;;33.30;13.43;;;5.80;95.70;;;;;;6227693;28;20056;-80
2021/12/26 04:42:38;;;;;;;32.13;13.43;;;5.80;95.60;;;;;;6228508;28;20045;-79
2021/12/26 04:45:40;;;;;;;30.75;14.32;;;5.90;95.60;;;;;;6227104;28;20419;-79
2021/12/26 04:48:44;;;;;;;32.78;13.32;;;5.80;95.60;;;;;;6228213;28;20523;-80
2021/12/26 04:51:46;;;;;;;29.88;13.18;;;5.80;95.60;;;;;;6228095;28;20120;-80
2021/12/26 04:54:49;;;;;;;26.52;12.20;;;5.80;95.60;;;;;;6227417;28;20053;-80
2021/12/26 04:57:52;;;;;;;30.40;14.27;;;5.80;95.40;;;;;;6227554;28;20050;-80
2021/12/26 05:00:54;;;;;;;26.83;12.00;;;5.70;95.50;;;;;;6227106;28;20052;-79
2021/12/26 05:03:55;;;;;;;30.70;14.40;;;5.80;95.60;;;;;;6227579;28;20128;-79
2021/12/26 05:06:57;;;;;;;34.60;14.13;;;5.80;95.60;;;;;;6227388;28;20053;-80
2021/12/26 05:10:00;;;;;;;28.67;12.75;;;5.80;95.50;;;;;;6227006;28;20516;-79
2021/12/26 05:13:03;;;;;;;28.17;13.05;;;5.80;95.60;;;;;;6226161;28;20069;-79
2021/12/26 05:16:05;;;;;;;31.90;12.10;;;5.80;95.60;;;;;;6225827;28;20133;-79
2021/12/26 05:19:07;;;;;;;29.55;13.00;;;5.80;95.80;;;;;;6227367;28;20050;-78
2021/12/26 05:22:42;;;;;;;32.22;12.95;;;5.80;95.60;;;;;;6358821;22;20387;-83
2021/12/26 05:25:47;;;;;;;;;;;5.80;95.60;;;;;;6311222;28;20417;-83
2021/12/26 05:28:49;;;;;;;25.08;12.13;;;5.90;95.40;;;;;;6305207;28;19966;-84
2021/12/26 05:31:52;;;;;;;25.95;12.80;;;5.90;95.50;;;;;;6305446;28;20044;-83
2021/12/26 05:34:54;;;;;;;25.30;12.52;;;5.90;95.50;;;;;;6307077;28;20067;-83
2021/12/26 05:37:57;;;;;;;32.30;14.35;;;5.90;95.80;;;;;;6305660;28;20117;-82
2021/12/26 05:40:59;;;;;;;36.30;12.35;;;5.90;95.50;;;;;;6305621;28;20098;-83
2021/12/26 05:44:01;;;;;;;22.25;11.80;;;5.90;95.30;;;;;;6306113;28;20067;-83
2021/12/26 05:47:03;;;;;;;21.17;10.77;;;5.90;95.20;;;;;;6306602;28;20049;-83
2021/12/26 05:50:07;;;;;;;22.75;11.05;;;5.90;95.40;;;;;;6306143;28;20063;-84
2021/12/26 05:53:10;;;;;;;24.33;11.48;;;5.90;95.40;;;;;;6305029;28;20072;-83
2021/12/26 05:56:12;;;;;;;23.27;12.15;;;5.90;95.40;;;;;;6302394;28;20131;-83
2021/12/26 05:59:22;;;;;;;30.58;12.13;;;5.90;95.40;;;;;;6312777;28;20041;-83
2021/12/26 06:02:24;;;;;;;28.05;14.10;;;5.90;95.40;;;;;;6305816;28;20052;-83
2021/12/26 06:05:26;;;;;;;28.38;11.82;;;5.90;95.20;;;;;;6299162;28;20111;-83
2021/12/26 06:08:32;;;;;;;24.13;11.43;;;5.90;95.20;;;;;;6299046;28;20045;-83
2021/12/26 06:11:34;;;;;;;31.17;11.85;;;5.90;95.30;;;;;;6299318;28;20056;-84
2021/12/26 06:14:36;;;;;;;24.42;11.57;;;5.90;95.30;;;;;;6299835;28;20045;-84
2021/12/26 06:17:43;;;;;;;25.33;10.80;;;5.90;95.00;;;;;;6298408;28;20474;-83
2021/12/26 06:20:44;;;;;;;24.13;10.10;;;5.80;95.20;;;;;;6298033;28;20041;-84
2021/12/26 06:23:50;;;;;;;28.20;12.68;;;5.80;95.20;;;;;;6301392;28;20387;-82
2021/12/26 06:26:52;;;;;;;30.13;11.45;;;5.80;95.30;;;;;;6301961;28;20052;-83
2021/12/26 06:29:54;;;;;;;24.35;11.35;;;5.80;95.40;;;;;;6301823;28;20063;-83
2021/12/26 06:32:56;;;;;;;21.55;10.60;;;5.90;95.30;;;;;;6287485;28;20091;-81
2021/12/26 06:35:57;;;;;;;28.58;12.80;;;5.80;95.20;;;;;;6281173;28;20134;-81
2021/12/26 06:39:04;;;;;;;24.52;11.93;;;5.90;95.30;;;;;;6277699;28;20053;-80
2021/12/26 06:42:11;;;;;;;24.03;11.53;;;5.80;95.30;;;;;;6274636;28;20041;-81
2021/12/26 06:45:17;;;;;;;24.27;11.30;;;5.90;95.40;;;;;;6275801;28;20045;-80
2021/12/26 06:48:19;;;;;;;23.85;10.82;;;5.90;95.30;;;;;;6275302;28;20049;-81
2021/12/26 06:51:21;;;;;;;28.70;11.52;;;6.00;95.30;;;;;;6276709;28;20041;-80
2021/12/26 06:54:25;;;;;;;21.35;10.02;;;6.00;95.20;;;;;;6277694;28;20053;-81
2021/12/26 06:57:27;;;;;;;25.20;11.40;;;5.90;95.00;;;;;;6277127;28;20091;-81
2021/12/26 07:00:29;;;;;;;32.30;12.70;;;5.90;95.10;;;;;;6282724;28;20044;-82
2021/12/26 07:03:31;;;;;;;25.60;12.02;;;5.90;95.10;;;;;;6290584;28;20064;-82
2021/12/26 07:06:38;;;;;;;22.80;11.38;;;5.90;95.00;;;;;;6281746;28;20482;-83
2021/12/26 07:09:43;;;;;;;23.42;10.55;;;5.80;95.10;;;;;;6276873;28;20124;-83
2021/12/26 07:12:53;;;;;;;29.98;12.73;;;5.90;95.20;;;;;;6279665;28;20091;-82
2021/12/26 07:15:58;;;;;;;27.30;12.27;;;5.90;95.10;;;;;;6276279;28;20051;-82
2021/12/26 07:19:04;;;;;;;24.92;11.35;;;5.90;95.20;;;;;;6277012;28;20069;-81
2021/12/26 07:22:07;;;;;;;27.00;11.98;;;5.90;95.00;;;;;;6273328;28;20077;-81
2021/12/26 07:25:11;;;;;;;24.52;11.77;;;5.90;95.00;;;;;;6276808;28;20045;-81
2021/12/26 07:28:13;;;;;;;25.98;12.93;;;5.90;94.90;;;;;;6276727;28;20434;-82
2021/12/26 07:31:15;;;;;;;27.60;12.38;;;5.90;94.90;;;;;;6277092;28;20048;-81
2021/12/26 07:34:18;;;;;;;30.10;12.20;;;5.90;94.90;;;;;;6277067;28;20482;-81
2021/12/26 07:37:20;;;;;;;28.58;13.68;;;5.90;95.00;;;;;;6277489;28;20323;-81
2021/12/26 07:40:24;;;;;;;28.80;12.93;;;6.00;95.10;;;;;;6277390;28;20049;-81
2021/12/26 07:43:26;;;;;;;28.05;14.05;;;5.90;95.00;;;;;;6276490;28;20130;-81
2021/12/26 07:46:28;;;;;;;31.45;14.68;;;5.90;95.10;;;;;;6277117;28;20601;-81
2021/12/26 07:49:30;;;;;;;24.05;11.00;;;6.00;95.20;;;;;;6276479;28;20140;-81
2021/12/26 07:52:37;;;;;;;29.80;11.40;;;6.20;95.20;;;;;;6277803;28;20199;-82
2021/12/26 07:55:40;;;;;;;25.65;11.73;;;6.10;94.80;;;;;;6277266;28;20045;-81
2021/12/26 07:58:42;;;;;;;23.55;12.52;;;6.10;95.00;;;;;;6277155;28;20145;-81
2021/12/26 08:01:46;;;;;;;24.65;11.73;;;6.20;94.90;;;;;;6277099;28;20508;-81
2021/12/26 08:04:48;;;;;;;29.98;12.30;;;6.20;94.90;;;;;;6277238;28;20049;-81
2021/12/26 08:07:50;;;;;;;26.33;12.02;;;6.20;94.90;;;;;;6277315;28;20049;-81
2021/12/26 08:10:53;;;;;;;27.30;12.13;;;6.30;94.90;;;;;;6277804;28;20045;-81
2021/12/26 08:13:55;;;;;;;23.83;11.30;;;6.30;94.70;;;;;;6276927;28;20059;-81
2021/12/26 08:16:57;;;;;;;24.88;13.27;;;6.40;94.80;;;;;;6276611;28;20048;-81
2021/12/26 08:19:59;;;;;;;33.88;13.05;;;6.50;94.90;;;;;;6277291;28;20102;-82
2021/12/26 08:23:01;;;;;;;21.98;11.07;;;6.50;94.70;;;;;;6277507;28;20049;-81
2021/12/26 08:26:05;;;;;;;21.40;10.65;;;6.50;94.60;;;;;;6277094;28;20071;-81
2021/12/26 08:29:07;;;;;;;26.27;11.27;;;6.50;94.30;;;;;;6277546;28;20049;-82
2021/12/26 08:32:12;;;;;;;26.20;13.40;;;6.40;94.20;;;;;;6277402;28;20048;-81
2021/12/26 08:35:14;;;;;;;24.52;11.48;;;6.40;94.50;;;;;;6278327;28;20057;-82
2021/12/26 08:38:20;;;;;;;26.50;12.82;;;6.40;94.50;;;;;;6278137;28;20155;-82
2021/12/26 08:41:26;;;;;;;25.60;11.40;;;6.40;94.50;;;;;;6278140;28;20045;-83
2021/12/26 08:44:30;;;;;;;39.47;15.45;;;6.30;94.50;;;;;;6277119;28;20052;-82
2021/12/26 08:47:31;;;;;;;26.00;11.85;;;6.40;95.80;;;;;;6278946;28;20122;-81
2021/12/26 08:50:33;;;;;;;29.38;11.75;;;6.50;95.20;;;;;;6278894;28;20049;-81
2021/12/26 08:53:35;;;;;;;35.28;17.60;;;6.60;95.00;;;;;;6277748;28;20072;-81
2021/12/26 08:56:39;;;;;;;27.50;12.90;;;6.60;95.00;;;;;;6277032;28;20584;-82
2021/12/26 08:59:43;;;;;;;27.83;11.30;;;6.60;94.90;;;;;;6279026;28;20064;-81
2021/12/26 09:02:45;;;;;;;26.95;11.10;;;6.60;94.90;;;;;;6278243;28;20053;-82
2021/12/26 09:05:47;;;;;;;24.58;12.10;;;6.60;95.00;;;;;;6276818;28;20048;-82
2021/12/26 09:08:49;;;;;;;29.52;13.02;;;6.60;94.90;;;;;;6277445;28;20065;-82
2021/12/26 09:11:52;;;;;;;29.15;12.25;;;6.60;95.00;;;;;;6277749;28;20490;-82
2021/12/26 09:14:54;;;;;;;22.15;10.45;;;6.70;95.10;;;;;;6277123;28;20481;-82
2021/12/26 09:17:57;;;;;;;27.48;11.75;;;6.70;94.90;;;;;;6275830;28;20079;-82
2021/12/26 09:20:58;;;;;;;26.33;11.98;;;6.80;95.00;;;;;;6277247;28;20045;-80
2021/12/26 09:24:00;;;;;;;26.77;11.95;;;6.80;94.90;;;;;;6282312;28;20108;-82
2021/12/26 09:27:04;;;;;;;31.92;12.27;;;6.90;94.80;;;;;;6282258;28;20048;-82
2021/12/26 09:30:08;;;;;;;25.48;12.20;;;6.90;94.90;;;;;;6279428;28;20045;-82
2021/12/26 09:33:10;;;;;;;36.25;13.85;;;7.00;94.80;;;;;;6278026;28;20045;-82
2021/12/26 09:36:12;;;;;;;25.77;11.18;;;7.10;94.80;;;;;;6277525;28;20494;-82
2021/12/26 09:39:14;;;;;;;27.50;11.27;;;7.10;94.80;;;;;;6277842;28;20045;-80
2021/12/26 09:42:17;;;;;;;25.17;12.30;;;7.10;94.60;;;;;;6277377;28;20102;-81
2021/12/26 09:48:37;;;;;;;;;;;7.10;94.00;;;;;;6275329;28;20132;-82
2021/12/26 09:51:39;;;;;;;24.52;11.50;;;7.00;94.10;;;;;;6276506;28;19921;-83
2021/12/26 09:54:42;;;;;;;34.75;14.20;;;7.00;94.60;;;;;;6276633;28;20414;-82
2021/12/26 09:57:46;;;;;;;28.23;14.63;;;7.10;94.60;;;;;;6277522;28;20491;-82
2021/12/26 10:00:48;;;;;;;29.52;18.23;;;7.10;94.60;;;;;;6278357;28;20064;-81
2021/12/26 10:03:50;;;;;;;24.13;14.80;;;7.20;94.70;;;;;;6277814;28;20037;-81
2021/12/26 10:06:57;;;;;;;27.73;12.35;;;7.20;94.70;;;;;;6278371;28;20053;-81
2021/12/26 10:09:59;;;;;;;22.92;13.07;;;7.30;94.50;;;;;;6282223;28;20119;-82
2021/12/26 10:13:03;;;;;;;27.75;11.10;;;7.40;94.60;;;;;;6281515;28;20129;-82
2021/12/26 10:16:05;;;;;;;25.45;12.40;;;7.50;94.40;;;;;;6281711;28;20056;-81
2021/12/26 10:19:09;;;;;;;24.67;11.85;;;7.50;94.40;;;;;;6256935;28;20052;-81
2021/12/26 10:22:11;;;;;;;30.88;12.60;;;7.50;94.30;;;;;;6272797;28;20571;-80
2021/12/26 10:25:15;;;;;;;23.42;11.02;;;7.60;94.40;;;;;;6288623;28;20056;-81
2021/12/26 10:28:19;;;;;;;22.05;11.00;;;7.60;94.30;;;;;;6276371;28;20049;-81
2021/12/26 10:31:20;;;;;;;25.20;11.20;;;7.70;94.20;;;;;;6254400;28;20073;-80
2021/12/26 10:34:28;;;;;;;21.77;10.98;;;7.70;94.20;;;;;;6255236;28;20057;-80
2021/12/26 10:37:34;;;;;;;23.65;12.57;;;7.70;94.20;;;;;;6255016;28;20053;-82
2021/12/26 10:40:39;;;;;;;21.77;11.52;;;7.80;94.00;;;;;;6257323;28;20073;-80
2021/12/26 10:43:46;;;;;;;26.45;11.35;;;7.80;94.00;;;;;;6256367;28;20045;-79
2021/12/26 10:46:49;;;;;;;23.50;11.13;;;7.80;94.00;;;;;;6254301;28;20095;-80
2021/12/26 10:49:55;;;;;;;25.02;12.63;;;7.90;93.60;;;;;;6253483;28;20472;-79
2021/12/26 10:52:59;;;;;;;24.75;12.65;;;7.90;93.80;;;;;;6292843;28;20125;-79
2021/12/26 10:56:09;;;;;;;25.35;13.18;;;8.00;93.70;;;;;;6303054;28;20103;-79
2021/12/26 10:59:21;;;;;;;25.10;12.68;;;8.00;93.80;;;;;;6303883;28;20054;-80
2021/12/26 11:02:25;;;;;;;24.88;11.43;;;8.00;93.60;;;;;;6303876;28;20052;-80
2021/12/26 11:05:34;;;;;;;25.02;12.52;;;8.10;93.60;;;;;;6303343;28;20501;-80
2021/12/26 11:08:41;;;;;;;19.88;10.02;;;8.10;93.60;;;;;;6304321;28;20484;-80
2021/12/26 11:11:59;;;;;;;27.00;12.88;;;8.10;93.40;;;;;;6303306;28;20051;-79
2021/12/26 11:15:03;;;;;;;20.05;11.98;;;8.10;93.40;;;;;;6302756;28;20049;-81
2021/12/26 11:18:07;;;;;;;23.60;12.23;;;8.10;93.40;;;;;;6301853;28;20045;-79
2021/12/26 11:21:14;;;;;;;25.38;12.60;;;8.20;93.40;;;;;;6301455;28;20045;-80
2021/12/26 11:24:17;;;;;;;25.63;10.23;;;8.20;93.50;;;;;;6308485;23;20053;-83
2021/12/26 11:27:19;;;;;;;22.35;10.70;;;8.20;93.10;;;;;;6316860;28;20080;-84
2021/12/26 11:30:23;;;;;;;28.42;11.95;;;8.20;93.10;;;;;;6317206;28;20059;-82
2021/12/26 11:33:25;;;;;;;24.42;11.55;;;8.20;93.20;;;;;;6318816;28;20121;-82
2021/12/26 11:36:29;;;;;;;21.38;11.10;;;8.20;93.40;;;;;;6314550;28;20127;-81
2021/12/26 11:39:32;;;;;;;25.13;12.10;;;8.20;93.40;;;;;;6316904;28;20048;-84
2021/12/26 11:43:07;;;;;;;26.63;12.40;;;8.20;93.20;;;;;;6312144;28;20048;-84
2021/12/26 11:46:21;;;;;;;25.42;11.88;;;8.30;93.30;;;;;;6301150;28;20472;-79
2021/12/26 11:49:44;;;;;;;20.00;11.98;;;8.30;93.40;;;;;;6298720;28;20413;-78
2021/12/26 11:53:03;;;;;;;21.98;11.63;;;8.30;93.40;;;;;;6273033;28;20143;-79
2021/12/26 11:56:17;;;;;;;22.95;11.10;;;8.40;93.20;;;;;;6271884;28;20648;-81
2021/12/26 11:59:31;;;;;;;27.23;12.13;;;8.40;93.10;;;;;;6271679;28;20068;-78
2021/12/26 12:02:41;;;;;;;24.70;12.85;;;8.30;93.20;;;;;;6272182;28;20491;-78
2021/12/26 12:05:44;;;;;;;23.85;11.75;;;8.40;93.00;;;;;;6271965;28;20087;-79
2021/12/26 12:08:46;;;;;;;23.63;12.07;;;8.50;93.30;;;;;;6271935;28;20084;-79
2021/12/26 12:12:00;;;;;;;27.38;11.50;;;8.50;93.30;;;;;;6271979;28;20041;-79
2021/12/26 12:15:02;;;;;;;25.17;13.10;;;8.40;92.90;;;;;;6271973;28;20402;-78
2021/12/26 12:18:11;;;;;;;28.27;12.68;;;8.40;93.00;;;;;;6273750;28;20281;-79
2021/12/26 12:21:17;;;;;;;23.25;12.40;;;8.40;93.20;;;;;;6261357;28;20115;-82
2021/12/26 12:24:24;;;;;;;32.33;14.25;;;8.40;93.20;;;;;;6284944;28;20623;-79
2021/12/26 12:27:25;;;;;;;25.65;12.05;;;8.30;92.70;;;;;;6307932;28;20098;-82
2021/12/26 12:30:27;;;;;;;29.48;13.88;;;8.30;92.60;;;;;;6304796;28;20068;-81
2021/12/26 12:33:32;;;;;;;28.50;13.63;;;8.30;93.10;;;;;;6305690;28;20075;-82
2021/12/26 12:36:36;;;;;;;25.77;13.30;;;8.30;93.40;;;;;;6301970;28;20520;-79
2021/12/26 12:39:38;;;;;;;25.67;13.00;;;8.40;93.40;;;;;;6308755;28;20108;-81
2021/12/26 12:42:42;;;;;;;27.10;13.43;;;8.40;93.40;;;;;;6309732;28;20048;-81
2021/12/26 12:46:09;;;;;;;26.15;13.60;;;8.50;93.40;;;;;;6298679;28;20040;-80
2021/12/26 12:49:15;;;;;;;22.17;12.23;;;8.60;93.20;;;;;;6290621;28;20044;-82
2021/12/26 12:52:37;;;;;;;28.05;12.02;;;8.70;93.10;;;;;;6290162;28;20078;-78
2021/12/26 12:55:50;;;;;;;22.83;12.25;;;8.70;92.90;;;;;;6277982;28;20040;-81
2021/12/26 12:58:52;;;;;;;27.20;13.73;;;8.70;92.50;;;;;;6275815;28;20053;-79
2021/12/26 13:01:57;;;;;;;25.20;13.65;;;8.70;92.30;;;;;;6271482;28;20418;-79
2021/12/26 13:05:00;;;;;;;24.30;12.18;;;8.80;93.50;;;;;;6272140;28;20040;-80
2021/12/26 13:08:04;;;;;;;26.35;13.73;;;8.90;93.20;;;;;;6273715;28;20045;-80
2021/12/26 13:11:08;;;;;;;24.85;12.02;;;9.10;93.30;;;;;;6277527;28;20054;-80
2021/12/26 13:14:10;;;;;;;25.35;12.10;;;9.20;93.00;;;;;;6274493;28;20048;-80
2021/12/26 13:17:14;;;;;;;25.15;12.25;;;9.30;93.00;;;;;;6275569;28;20165;-80
2021/12/26 13:20:21;;;;;;;22.80;12.35;;;9.30;92.70;;;;;;6276865;28;20057;-82
2021/12/26 13:23:24;;;;;;;26.85;12.82;;;9.30;92.70;;;;;;6275207;28;20049;-82
2021/12/26 13:26:26;;;;;;;22.40;11.55;;;9.30;92.90;;;;;;6299940;28;20140;-82
2021/12/26 13:29:29;;;;;;;22.95;11.63;;;9.30;92.50;;;;;;6302162;28;20044;-83
2021/12/26 13:32:39;;;;;;;27.45;13.05;;;9.30;92.90;;;;;;6294993;28;20075;-83
2021/12/26 13:35:42;;;;;;;25.55;12.88;;;9.20;92.90;;;;;;6272978;28;20041;-80
2021/12/26 13:38:47;;;;;;;23.58;11.68;;;9.30;92.70;;;;;;6274737;28;20490;-80
2021/12/26 13:41:53;;;;;;;23.50;11.75;;;9.20;92.70;;;;;;6276461;28;20045;-80
2021/12/26 13:44:55;;;;;;;21.67;11.90;;;9.20;92.60;;;;;;6279636;28;20049;-80
2021/12/26 13:47:57;;;;;;;27.80;12.73;;;9.10;92.50;;;;;;6279348;28;20049;-80
2021/12/26 13:51:17;;;;;;;22.98;12.35;;;9.10;92.70;;;;;;6281296;28;20133;-80
2021/12/26 13:54:24;;;;;;;25.23;12.55;;;9.10;92.80;;;;;;6273021;28;20048;-82
2021/12/26 13:57:26;;;;;;;25.25;12.15;;;9.00;92.70;;;;;;6279663;28;20517;-84
2021/12/26 14:00:28;;;;;;;24.58;11.82;;;9.10;92.70;;;;;;6279791;28;20088;-82
2021/12/26 14:03:30;;;;;;;28.55;12.73;;;9.00;92.80;;;;;;6279065;28;20053;-83
2021/12/26 14:06:33;;;;;;;28.63;15.20;;;9.00;92.50;;;;;;6281030;28;20049;-80
2021/12/26 14:09:44;;;;;;;26.58;12.60;;;8.90;91.60;;;;;;6279615;28;20128;-81
2021/12/26 14:12:49;;;;;;;23.83;11.27;;;8.70;92.00;;;;;;6279428;28;20041;-80
2021/12/26 14:15:56;;;;;;;22.50;11.77;;;8.50;92.00;;;;;;6278735;28;20382;-82
2021/12/26 14:19:05;;;;;;;27.13;12.60;;;8.50;92.00;;;;;;6279936;28;20388;-81
2021/12/26 14:22:08;;;;;;;25.95;11.57;;;8.40;92.30;;;;;;6277824;28;20049;-81
2021/12/26 14:25:11;;;;;;;33.72;13.98;;;8.40;92.80;;;;;;6285730;28;20133;-81
2021/12/26 14:28:15;;;;;;;26.10;12.43;;;8.40;92.80;;;;;;6303326;28;20130;-80
2021/12/26 14:31:28;;;;;;;29.05;12.50;;;8.40;93.00;;;;;;6303474;28;20049;-80
2021/12/26 14:34:32;;;;;;;29.92;14.18;;;8.50;93.00;;;;;;6304364;28;20123;-82
2021/12/26 14:37:35;;;;;;;26.05;13.05;;;8.50;93.10;;;;;;6303475;28;20048;-81
2021/12/26 14:40:49;;;;;;;29.00;11.85;;;8.60;93.10;;;;;;6303546;28;20048;-80
2021/12/26 14:43:52;;;;;;;31.27;13.52;;;8.70;93.00;;;;;;6303174;28;20052;-80
2021/12/26 14:46:56;;;;;;;25.40;12.40;;;8.70;92.90;;;;;;6303648;28;20104;-81
2021/12/26 14:50:00;;;;;;;27.30;12.40;;;8.70;92.90;;;;;;6302281;28;20044;-80
2021/12/26 14:53:14;;;;;;;31.50;13.15;;;8.70;92.90;;;;;;6278066;28;20052;-80
2021/12/26 14:56:15;;;;;;;30.17;13.57;;;8.70;92.90;;;;;;6277354;28;20524;-79
2021/12/26 14:59:25;;;;;;;34.28;14.38;;;8.70;92.90;;;;;;6279396;28;20052;-80
2021/12/26 15:02:34;;;;;;;26.60;12.27;;;8.70;92.90;;;;;;6278037;28;20049;-80
2021/12/26 15:05:36;;;;;;;31.17;14.95;;;8.70;93.00;;;;;;6276363;28;20051;-80
2021/12/26 15:08:40;;;;;;;31.08;14.68;;;8.70;92.90;;;;;;6277532;28;20051;-82
2021/12/26 15:11:42;;;;;;;28.73;13.82;;;8.70;92.90;;;;;;6278938;28;20055;-82
2021/12/26 15:14:43;;;;;;;60.88;28.77;;;8.60;92.90;;;;;;6279979;28;20080;-81
2021/12/26 15:17:53;;;;;;;44.88;19.73;;;8.60;92.90;;;;;;6279628;28;20049;-82
2021/12/26 15:20:56;;;;;;;32.60;15.93;;;8.50;92.90;;;;;;6280038;28;20764;-83
2021/12/26 15:24:07;;;;;;;34.35;16.20;;;8.40;92.90;;;;;;6279442;28;20132;-80
2021/12/26 15:27:09;;;;;;;37.75;15.73;;;8.40;93.00;;;;;;6285543;28;20048;-80
2021/12/26 15:30:20;;;;;;;32.50;15.32;;;8.30;93.00;;;;;;6301420;28;20547;-79
2021/12/26 15:33:34;;;;;;;35.20;16.02;;;8.20;93.00;;;;;;6299446;28;20044;-79
2021/12/26 15:36:39;;;;;;;37.78;16.83;;;8.10;93.20;;;;;;6299645;28;20124;-81
2021/12/26 15:39:42;;;;;;;44.88;17.23;;;8.10;93.30;;;;;;6299823;28;20126;-79
2021/12/26 15:42:44;;;;;;;38.78;16.92;;;8.00;93.30;;;;;;6302043;28;20564;-82
2021/12/26 15:45:46;;;;;;;46.72;18.00;;;8.00;93.90;;;;;;6304564;28;20044;-82
2021/12/26 15:48:48;;;;;;;44.67;17.00;;;7.90;94.60;;;;;;6303508;28;20158;-82
2021/12/26 15:51:50;;;;;;;41.25;17.60;;;7.80;94.90;;;;;;6285667;28;20163;-79